Time;durP1;ratioP1;P1;durP2;ratioP2;P2;SDS_P1;SDS_P2;PMS_P1;PMS_P2;Temp;Humidity;BMP_temperature;BMP_pressure;BME280_temperature;BME280_humidity;BME280_pressure;Samples;Min_cycle;Max_cycle;Signal;HPM_P1;HPM_P2
2022/11/07 00:00:56;;;;;;;4.88;3.70;;;;;;;19.10;52.80;100544.34;5129790;27;20027;-54
2022/11/07 00:03:21;;;;;;;5.45;3.55;;;;;;;19.09;52.86;100545.34;5132956;27;20028;-54
2022/11/07 00:05:46;;;;;;;6.97;3.75;;;;;;;19.08;53.15;100555.28;5140303;27;20034;-52
2022/11/07 00:08:11;;;;;;;5.90;4.20;;;;;;;19.02;52.86;100542.53;5144016;27;20511;-51
2022/11/07 00:10:37;;;;;;;5.43;3.25;;;;;;;19.07;53.17;100550.91;5143351;27;20035;-54
2022/11/07 00:13:02;;;;;;;5.88;3.92;;;;;;;19.08;53.21;100554.47;5129205;28;20138;-53
2022/11/07 00:15:27;;;;;;;7.40;4.07;;;;;;;19.07;52.88;100553.59;5125808;28;20061;-56
2022/11/07 00:17:53;;;;;;;5.38;3.22;;;;;;;19.06;53.10;100561.88;5133719;27;20046;-55
2022/11/07 00:20:18;;;;;;;5.80;3.13;;;;;;;19.06;52.86;100559.19;5132237;28;20039;-54
2022/11/07 00:22:43;;;;;;;5.70;3.47;;;;;;;19.05;52.99;100558.34;5127202;28;20026;-55
2022/11/07 00:25:09;;;;;;;5.10;3.22;;;;;;;18.93;53.04;100548.97;5140111;27;20019;-52
2022/11/07 00:27:34;;;;;;;5.82;3.10;;;;;;;18.96;53.05;100551.31;5144274;27;20019;-56
2022/11/07 00:29:59;;;;;;;5.20;3.08;;;;;;;19.03;52.90;100560.38;5127125;28;20024;-56
2022/11/07 00:32:24;;;;;;;4.53;3.17;;;;;;;19.04;53.05;100566.63;5131726;28;20614;-55
2022/11/07 00:34:50;;;;;;;5.47;3.10;;;;;;;18.91;52.94;100548.34;5129547;28;20446;-52
2022/11/07 00:37:15;;;;;;;5.10;3.30;;;;;;;18.96;52.84;100570.19;5123420;28;20106;-55
2022/11/07 00:39:40;;;;;;;4.55;2.70;;;;;;;19.01;53.17;100575.88;5135951;28;20035;-54
2022/11/07 00:42:05;;;;;;;7.35;4.20;;;;;;;19.02;52.89;100579.41;5125399;28;20028;-54
2022/11/07 00:44:30;;;;;;;4.82;3.15;;;;;;;19.02;53.15;100577.53;5133286;28;20027;-54
2022/11/07 00:46:56;;;;;;;5.07;3.25;;;;;;;19.02;53.18;100582.09;5129345;28;20043;-52
2022/11/07 00:49:21;;;;;;;3.67;2.60;;;;;;;19.00;53.22;100584.97;5131635;28;20631;-56
2022/11/07 00:51:46;;;;;;;6.35;2.90;;;;;;;19.01;53.13;100583.13;5129698;28;20430;-56
2022/11/07 00:54:11;;;;;;;5.28;3.30;;;;;;;19.00;52.81;100584.97;5141432;27;20030;-54
2022/11/07 00:56:37;;;;;;;3.90;2.40;;;;;;;18.98;52.98;100592.38;5139317;27;20019;-52
2022/11/07 00:59:02;;;;;;;6.05;3.42;;;;;;;19.00;52.93;100592.22;5133555;27;20038;-54
2022/11/07 01:01:30;;;;;;;4.70;3.28;;;;;;;18.99;53.17;100591.41;5137931;27;20058;-49
2022/11/07 01:06:41;;;;;;;4.22;2.80;;;;;;;18.98;53.16;100589.69;5137009;27;20038;-49
2022/11/07 01:09:10;;;;;;;4.32;2.47;;;;;;;18.97;53.25;100598.81;5133522;27;20026;-50
2022/11/07 01:11:36;;;;;;;5.13;2.88;;;;;;;18.97;53.15;100598.81;5138726;27;20110;-49
2022/11/07 01:14:02;;;;;;;4.72;2.90;;;;;;;18.96;53.25;100597.97;5141841;27;20108;-51
2022/11/07 01:16:29;;;;;;;4.25;2.58;;;;;;;18.96;53.05;100584.50;5143512;27;20091;-48
2022/11/07 01:18:54;;;;;;;3.65;2.60;;;;;;;18.95;52.84;100592.75;5131114;27;20015;-52
2022/11/07 01:21:20;;;;;;;3.70;3.05;;;;;;;18.90;53.14;100596.00;5142322;27;20047;-50
2022/11/07 01:23:45;;;;;;;4.38;3.05;;;;;;;18.95;53.24;100606.22;5142729;27;20035;-53
2022/11/07 01:26:12;;;;;;;3.28;2.42;;;;;;;18.96;53.11;100610.59;5130308;27;20045;-52
2022/11/07 01:28:37;;;;;;;5.35;2.97;;;;;;;18.93;53.01;100619.84;5131662;27;20023;-52
2022/11/07 01:31:05;;;;;;;3.55;2.38;;;;;;;18.93;52.88;100616.31;5135617;27;20118;-51
2022/11/07 01:33:30;;;;;;;3.95;2.78;;;;;;;18.94;52.92;100615.31;5126687;28;20030;-50
2022/11/07 01:36:04;;;;;;;4.07;2.72;;;;;;;18.92;53.18;100612.81;5135291;27;20023;-51
2022/11/07 01:38:29;;;;;;;4.35;2.65;;;;;;;18.93;53.24;100616.31;5126296;27;20040;-53
2022/11/07 01:43:45;;;;;;;5.50;2.50;;;;;;;18.93;53.32;100621.72;5126438;28;20054;-53
2022/11/07 01:46:11;;;;;;;3.95;2.63;;;;;;;18.92;53.00;100620.03;5133436;27;20031;-52
2022/11/07 01:48:37;;;;;;;5.13;2.70;;;;;;;18.91;53.32;100632.69;5130295;27;20027;-54
2022/11/07 01:51:03;;;;;;;4.22;2.90;;;;;;;18.91;53.13;100630.00;5124664;28;20030;-49
2022/11/07 01:53:28;;;;;;;4.78;2.67;;;;;;;18.92;53.14;100630.81;5124901;28;20079;-54
2022/11/07 01:55:54;;;;;;;3.65;2.50;;;;;;;18.91;52.98;100621.06;5126297;28;20023;-52
2022/11/07 01:58:19;;;;;;;4.72;2.70;;;;;;;18.91;53.00;100621.06;5134558;27;20019;-53
2022/11/07 02:00:44;;;;;;;3.40;2.47;;;;;;;18.90;52.92;100630.13;5131933;27;20106;-54
2022/11/07 02:03:11;;;;;;;3.33;2.13;;;;;;;18.89;53.08;100632.00;5139268;27;20588;-51
2022/11/07 02:05:42;;;;;;;5.03;2.50;;;;;;;18.89;53.23;100623.91;5138386;27;20023;-54
2022/11/07 02:08:07;;;;;;;4.28;2.70;;;;;;;18.88;53.11;100622.25;5132719;27;20071;-55
2022/11/07 02:10:38;;;;;;;3.92;2.20;;;;;;;18.85;53.17;100619.91;5132581;27;20020;-53
2022/11/07 02:13:04;;;;;;;3.10;2.17;;;;;;;18.88;53.23;100619.56;5129891;27;20034;-56
2022/11/07 02:15:30;;;;;;;2.92;2.10;;;;;;;18.86;53.08;100629.69;5136546;27;20050;-56
2022/11/07 02:17:56;;;;;;;3.05;2.00;;;;;;;18.87;53.02;100628.66;5131174;27;20015;-55
2022/11/07 02:20:21;;;;;;;5.38;2.08;;;;;;;18.87;53.15;100627.81;5144504;27;20027;-53
2022/11/07 02:22:51;;;;;;;4.40;2.60;;;;;;;18.87;53.42;100633.22;5132560;27;20051;-51
2022/11/07 02:25:18;;;;;;;3.88;2.55;;;;;;;18.87;53.30;100634.03;5138333;27;20030;-51
2022/11/07 02:27:45;;;;;;;3.28;2.42;;;;;;;18.86;53.38;100637.75;5125392;27;20054;-55
2022/11/07 02:30:22;;;;;;;3.15;1.85;;;;;;;18.87;53.08;100638.59;5138703;27;20532;-52
2022/11/07 02:32:48;;;;;;;3.60;2.20;;;;;;;18.87;53.16;100635.91;5138863;27;20031;-53
2022/11/07 02:35:32;;;;;;;3.45;1.95;;;;;;;18.85;53.26;100633.38;5131125;27;20110;-54
2022/11/07 02:37:57;;;;;;;3.08;2.03;;;;;;;18.86;53.32;100642.28;5132618;27;20016;-56
2022/11/07 02:40:23;;;;;;;3.95;2.30;;;;;;;18.85;53.09;100638.75;5130550;27;20037;-55
2022/11/07 02:42:48;;;;;;;4.85;2.63;;;;;;;18.84;52.86;100637.06;5133237;27;20103;-55
2022/11/07 02:45:18;;;;;;;4.70;2.28;;;;;;;18.84;52.90;100631.69;5127235;27;20057;-55
2022/11/07 02:47:43;;;;;;;3.30;1.98;;;;;;;18.84;53.26;100631.69;5136910;27;20040;-51
2022/11/07 02:50:11;;;;;;;3.05;2.15;;;;;;;18.83;53.30;100632.72;5127411;27;20492;-56
2022/11/07 02:52:37;;;;;;;4.10;2.38;;;;;;;18.84;53.38;100636.25;5137743;27;20023;-51
2022/11/07 02:55:02;;;;;;;5.25;2.10;;;;;;;18.83;52.99;100635.41;5124487;28;20050;-54
2022/11/07 02:57:28;;;;;;;2.85;2.00;;;;;;;18.84;53.18;100628.16;5138912;27;20028;-51
2022/11/07 02:59:53;;;;;;;3.15;2.03;;;;;;;18.83;53.50;100637.25;5125131;28;20176;-56
2022/11/07 03:02:18;;;;;;;3.78;2.00;;;;;;;18.82;53.38;100631.03;5139328;27;20042;-55
2022/11/07 03:04:43;;;;;;;2.88;1.95;;;;;;;18.82;53.34;100641.81;5133549;27;20023;-56
2022/11/07 03:07:09;;;;;;;2.58;1.98;;;;;;;18.81;53.31;100645.50;5130697;27;20027;-52
2022/11/07 03:09:34;;;;;;;3.00;2.25;;;;;;;18.82;53.48;100643.63;5138635;27;20062;-56
2022/11/07 03:11:59;;;;;;;3.65;2.08;;;;;;;18.79;53.53;100647.53;5136392;27;20027;-54
2022/11/07 03:14:24;;;;;;;2.83;1.85;;;;;;;18.82;53.47;100654.41;5130518;27;20019;-56
2022/11/07 03:16:49;;;;;;;3.38;2.10;;;;;;;18.81;53.21;100647.34;5135909;27;20488;-51
2022/11/07 03:19:15;;;;;;;2.90;2.00;;;;;;;18.80;53.19;100641.13;5138820;27;20099;-56
2022/11/07 03:21:40;;;;;;;2.95;2.13;;;;;;;18.80;53.34;100634.91;5127786;27;20016;-54
2022/11/07 03:24:05;;;;;;;2.88;2.15;;;;;;;18.81;53.33;100647.34;5139138;27;20027;-53
2022/11/07 03:26:31;;;;;;;3.03;1.70;;;;;;;18.80;53.09;100648.38;5130288;27;20042;-53
2022/11/07 03:28:58;;;;;;;3.13;2.03;;;;;;;18.79;53.35;100658.31;5132716;27;20111;-53
2022/11/07 03:31:23;;;;;;;3.15;2.00;;;;;;;18.80;53.35;100651.06;5138378;27;20040;-55
2022/11/07 03:33:48;;;;;;;2.60;1.80;;;;;;;18.78;53.22;100648.56;5134748;27;20029;-55
2022/11/07 03:36:14;;;;;;;3.45;2.22;;;;;;;18.79;53.12;100650.22;5129812;27;20027;-53
2022/11/07 03:38:39;;;;;;;4.97;2.35;;;;;;;18.78;53.28;100651.25;5137890;27;20020;-53
2022/11/07 03:41:04;;;;;;;3.63;2.35;;;;;;;18.79;53.19;100655.63;5130556;27;20050;-53
2022/11/07 03:43:29;;;;;;;2.83;1.80;;;;;;;18.79;53.11;100660.16;5138073;27;20049;-52
2022/11/07 03:45:55;;;;;;;4.20;2.00;;;;;;;18.72;52.95;100644.69;5128174;27;20104;-54
2022/11/07 03:48:20;;;;;;;3.65;2.00;;;;;;;18.78;53.18;100661.19;5124189;28;20036;-54
2022/11/07 03:50:45;;;;;;;3.38;1.92;;;;;;;18.78;53.08;100653.94;5137810;27;20039;-53
2022/11/07 03:53:10;;;;;;;2.35;1.70;;;;;;;18.78;53.37;100651.25;5136023;27;20035;-54
2022/11/07 03:55:35;;;;;;;2.97;1.80;;;;;;;18.76;53.24;100650.56;5129767;27;20033;-53
2022/11/07 03:58:01;;;;;;;3.78;2.13;;;;;;;18.68;53.40;100642.50;5134910;27;20035;-56
2022/11/07 04:00:26;;;;;;;2.38;1.67;;;;;;;18.77;53.32;100648.72;5123615;28;20039;-51
2022/11/07 04:02:51;;;;;;;2.55;1.70;;;;;;;18.75;53.31;100650.75;5131236;27;20027;-55
2022/11/07 04:05:17;;;;;;;4.05;2.10;;;;;;;18.76;53.43;100657.81;5130636;27;20034;-53
2022/11/07 04:07:42;;;;;;;3.72;1.70;;;;;;;18.75;53.11;100654.28;5123695;28;20062;-56
2022/11/07 04:10:08;;;;;;;2.80;2.20;;;;;;;18.72;53.27;100660.00;5135546;27;20662;-54
2022/11/07 04:18:01;;;;;;;2.85;1.50;;;;;;;18.74;53.38;100674.16;5129902;28;20115;-51
2022/11/07 04:20:27;;;;;;;3.05;2.05;;;;;;;18.73;52.92;100670.63;5131481;27;20048;-50
2022/11/07 04:22:52;;;;;;;2.75;2.03;;;;;;;18.65;53.17;100654.47;5131818;28;20026;-54
2022/11/07 04:27:41;;;;;;;2.75;1.75;;;;;;;18.72;53.13;100666.22;5133743;28;20035;-51
2022/11/07 04:28:03;;;;;;;3.15;1.80;;;;;;;18.72;53.02;100668.09;5139825;27;20019;-50
2022/11/07 04:30:28;;;;;;;2.95;1.80;;;;;;;18.72;53.31;100679.69;5138456;27;20061;-52
2022/11/07 04:32:59;;;;;;;3.58;1.98;;;;;;;18.70;53.03;100664.75;5134189;27;20024;-54
2022/11/07 04:35:29;;;;;;;2.35;1.90;;;;;;;18.72;53.40;100671.63;5138139;27;20071;-54
2022/11/07 04:37:54;;;;;;;2.88;1.85;;;;;;;18.71;53.30;100669.13;5142700;27;20031;-52
2022/11/07 04:40:19;;;;;;;2.03;1.60;;;;;;;18.71;53.43;100669.13;5135644;27;20050;-55
2022/11/07 04:42:45;;;;;;;3.10;1.60;;;;;;;18.69;53.06;100669.31;5134119;27;20024;-53
2022/11/07 04:45:11;;;;;;;2.60;1.63;;;;;;;18.69;53.27;100663.91;5143908;27;20024;-51
2022/11/07 04:47:37;;;;;;;2.90;1.92;;;;;;;18.69;53.29;100669.31;5139910;27;20043;-54
2022/11/07 04:50:03;;;;;;;2.85;1.70;;;;;;;18.69;53.00;100671.09;5141600;27;20437;-56
2022/11/07 04:52:28;;;;;;;2.45;1.83;;;;;;;18.69;53.19;100666.59;5133006;27;20080;-54
2022/11/07 04:54:54;;;;;;;3.63;1.92;;;;;;;18.68;53.05;100666.72;5135998;27;20027;-54
2022/11/07 04:57:19;;;;;;;2.22;1.60;;;;;;;18.68;53.02;100672.09;5141820;27;20026;-52
2022/11/07 04:59:44;;;;;;;2.40;1.48;;;;;;;18.68;53.25;100674.81;5136852;27;20796;-55
2022/11/07 05:02:10;;;;;;;3.63;2.20;;;;;;;18.59;53.16;100662.38;5131866;27;20102;-51
2022/11/07 05:04:36;;;;;;;2.97;1.73;;;;;;;18.67;53.51;100673.13;5127104;27;20034;-55
2022/11/07 05:07:01;;;;;;;3.75;1.77;;;;;;;18.67;53.05;100679.34;5137046;27;20028;-54
2022/11/07 05:09:26;;;;;;;2.40;1.40;;;;;;;18.65;52.92;100678.69;5141702;27;20065;-54
2022/11/07 05:11:52;;;;;;;2.45;2.00;;;;;;;18.65;53.42;100676.00;5126727;28;20024;-56
2022/11/07 05:14:17;;;;;;;2.97;1.75;;;;;;;18.65;53.13;100672.47;5127229;27;20011;-52
2022/11/07 05:16:42;;;;;;;3.75;1.88;;;;;;;18.63;53.02;100669.09;5130691;27;20023;-48
2022/11/07 05:19:15;;;;;;;3.28;1.63;;;;;;;18.64;53.20;100678.84;5136596;27;20027;-51
2022/11/07 05:21:41;;;;;;;3.08;1.42;;;;;;;18.64;53.37;100671.59;5139324;27;20019;-51
2022/11/07 05:24:06;;;;;;;3.55;2.03;;;;;;;18.64;53.34;100671.59;5138023;27;20051;-53
2022/11/07 05:26:31;;;;;;;2.10;1.60;;;;;;;18.64;53.39;100666.22;5134806;27;20023;-56
2022/11/07 05:28:56;;;;;;;3.00;1.95;;;;;;;18.64;53.44;100673.47;5135612;27;20027;-51
2022/11/07 05:31:21;;;;;;;2.63;1.85;;;;;;;18.65;53.44;100673.31;5131806;27;20038;-55
2022/11/07 05:33:47;;;;;;;2.42;1.50;;;;;;;18.64;53.05;100673.47;5140088;27;20033;-55
2022/11/07 05:36:14;;;;;;;3.15;1.75;;;;;;;18.64;53.18;100677.00;5141145;27;20068;-49
2022/11/07 05:38:42;;;;;;;3.25;1.63;;;;;;;18.64;53.56;100673.47;5135263;27;20016;-53
2022/11/07 05:41:07;;;;;;;2.30;1.60;;;;;;;18.58;53.38;100669.63;5140070;27;20027;-52
2022/11/07 05:43:32;;;;;;;3.10;1.48;;;;;;;18.64;53.40;100670.78;5134939;27;20016;-54
2022/11/07 05:46:01;;;;;;;2.42;1.50;;;;;;;18.64;53.58;100676.16;5134326;27;20052;-54
2022/11/07 05:48:26;;;;;;;3.90;2.00;;;;;;;18.61;53.62;100671.97;5132116;27;20061;-52
2022/11/07 05:50:52;;;;;;;3.05;1.85;;;;;;;18.64;53.67;100668.91;5125263;27;20634;-54
2022/11/07 05:53:19;;;;;;;2.80;1.80;;;;;;;18.64;53.66;100673.47;5128467;27;20019;-52
2022/11/07 05:55:45;;;;;;;3.65;1.70;;;;;;;18.64;53.51;100681.53;5131978;27;20030;-53
2022/11/07 05:58:10;;;;;;;3.08;1.67;;;;;;;18.42;53.65;100648.94;5132812;27;20023;-54
2022/11/07 06:00:35;;;;;;;3.22;1.38;;;;;;;18.64;53.69;100682.38;5125612;27;20031;-54
2022/11/07 06:03:01;;;;;;;3.30;1.58;;;;;;;18.63;53.61;100678.00;5128521;27;20046;-52
2022/11/07 06:05:27;;;;;;;2.40;1.63;;;;;;;18.64;53.54;100685.06;5129878;27;20039;-52
2022/11/07 06:07:52;;;;;;;2.00;1.17;;;;;;;18.65;53.62;100688.63;5131382;27;20031;-52
2022/11/07 06:10:18;;;;;;;4.55;1.80;;;;;;;18.65;53.66;100686.78;5129767;27;20019;-52
2022/11/07 06:12:43;;;;;;;2.88;1.30;;;;;;;18.64;53.66;100685.06;5130035;27;20019;-52
2022/11/07 06:15:09;;;;;;;2.17;1.40;;;;;;;18.64;53.76;100685.06;5126254;27;20511;-54
2022/11/07 06:17:34;;;;;;;1.95;1.50;;;;;;;18.65;54.02;100685.94;5132275;27;20073;-54
2022/11/07 06:19:59;;;;;;;2.70;1.33;;;;;;;18.65;53.75;100692.16;5126804;27;20020;-54
2022/11/07 06:22:25;;;;;;;4.07;2.05;;;;;;;18.63;54.12;100688.78;5128726;27;20019;-56
2022/11/07 06:24:50;;;;;;;4.03;2.55;;;;;;;18.64;53.66;100687.78;5129264;27;20038;-52
2022/11/07 06:27:15;;;;;;;3.65;1.52;;;;;;;18.65;53.75;100694.03;5143964;27;20062;-51
2022/11/07 06:29:41;;;;;;;2.45;1.40;;;;;;;18.65;54.12;100694.03;5137717;27;20083;-52
2022/11/07 06:32:06;;;;;;;1.48;1.30;;;;;;;18.64;53.84;100693.16;5131714;27;20045;-53
2022/11/07 06:34:31;;;;;;;2.25;1.40;;;;;;;18.64;53.84;100687.78;5132594;27;20106;-54
2022/11/07 06:36:56;;;;;;;3.33;1.80;;;;;;;18.64;54.09;100687.78;5126802;27;20046;-54
2022/11/07 06:39:22;;;;;;;3.03;1.50;;;;;;;18.64;53.91;100697.69;5129761;27;20024;-54
2022/11/07 06:41:48;;;;;;;3.33;1.88;;;;;;;18.63;53.87;100687.94;5130940;27;20049;-52
2022/11/07 06:44:13;;;;;;;3.50;1.50;;;;;;;18.63;54.05;100694.19;5128410;27;20031;-51
2022/11/07 06:46:38;;;;;;;3.47;1.92;;;;;;;18.59;53.89;100690.16;5126222;27;20046;-52
2022/11/07 06:49:04;;;;;;;3.20;1.50;;;;;;;18.56;54.08;100692.34;5131665;27;20122;-54
2022/11/07 06:51:29;;;;;;;3.05;1.60;;;;;;;18.63;54.17;100709.50;5124378;27;20558;-49
2022/11/07 06:53:54;;;;;;;3.28;1.60;;;;;;;18.64;54.20;100719.25;5128522;27;20051;-56
2022/11/07 06:56:20;;;;;;;2.53;1.38;;;;;;;18.63;53.99;100712.19;5125723;27;20035;-54
2022/11/07 06:58:45;;;;;;;2.47;1.60;;;;;;;18.63;53.97;100712.19;5128174;27;20028;-53
2022/11/07 07:01:13;;;;;;;3.58;1.70;;;;;;;18.55;54.04;100704.97;5125180;27;20023;-54
2022/11/07 07:03:39;;;;;;;3.47;1.40;;;;;;;18.49;54.08;100695.72;5134181;27;20070;-56
2022/11/07 07:06:08;;;;;;;2.47;1.50;;;;;;;18.55;54.17;100706.81;5131813;27;20023;-53
2022/11/07 07:08:33;;;;;;;4.03;1.83;;;;;;;18.36;54.16;100673.88;5132218;27;20034;-56
2022/11/07 07:11:04;;;;;;;4.25;1.50;;;;;;;18.62;54.27;100730.19;5140066;27;20031;-54
2022/11/07 07:13:29;;;;;;;3.47;1.92;;;;;;;18.63;53.97;100736.41;5135862;27;20079;-54
2022/11/07 07:15:56;;;;;;;4.20;1.30;;;;;;;18.61;54.15;100728.53;5144062;27;20034;-55
2022/11/07 07:18:21;;;;;;;2.97;1.77;;;;;;;18.62;53.90;100726.66;5144583;27;20022;-55
2022/11/07 07:20:48;;;;;;;2.22;1.30;;;;;;;18.63;54.23;100736.41;5142731;27;20023;-55
2022/11/07 07:23:13;;;;;;;3.30;1.58;;;;;;;18.63;53.92;100729.19;5134416;27;20015;-55
2022/11/07 07:25:38;;;;;;;1.67;1.30;;;;;;;18.63;54.00;100739.94;5124858;28;20092;-56
2022/11/07 07:28:04;;;;;;;3.38;1.50;;;;;;;18.64;53.72;100735.41;5133608;27;20031;-55
2022/11/07 07:30:29;;;;;;;6.47;1.50;;;;;;;18.65;53.90;100737.94;5137435;27;20027;-53
2022/11/07 07:32:54;;;;;;;3.42;1.50;;;;;;;18.63;53.88;100750.72;5135594;27;20517;-52
2022/11/07 07:35:20;;;;;;;3.15;1.60;;;;;;;18.57;53.90;100740.66;5138142;27;20059;-52
2022/11/07 07:37:50;;;;;;;9.32;2.28;;;;;;;18.55;54.17;100753.41;5123662;28;20023;-55
2022/11/07 07:40:15;;;;;;;6.18;2.22;;;;;;;18.54;53.52;100748.22;5124399;28;20024;-53
2022/11/07 07:42:42;;;;;;;4.32;2.03;;;;;;;18.49;53.52;100754.94;5123958;28;20084;-57
2022/11/07 07:45:09;;;;;;;5.35;1.90;;;;;;;18.46;53.59;100752.59;5124528;28;20386;-55
2022/11/07 07:47:34;;;;;;;6.53;2.20;;;;;;;18.46;53.68;100751.75;5132044;27;20126;-53
2022/11/07 07:49:59;;;;;;;8.57;2.83;;;;;;;18.47;53.71;100762.34;5130931;27;20030;-56
2022/11/07 07:52:24;;;;;;;7.13;2.60;;;;;;;18.48;53.63;100758.66;5133286;27;20027;-55
2022/11/07 07:54:50;;;;;;;6.90;2.25;;;;;;;18.49;53.63;100754.94;5134143;27;20110;-55
2022/11/07 07:57:15;;;;;;;9.70;2.33;;;;;;;18.51;53.45;100756.63;5133302;27;20019;-55
2022/11/07 07:59:40;;;;;;;5.63;2.10;;;;;;;18.52;53.56;100752.91;5133868;27;20026;-54
2022/11/07 08:02:09;;;;;;;5.63;2.30;;;;;;;18.53;53.44;100755.47;5131912;27;20019;-55
2022/11/07 08:04:34;;;;;;;;;;;;;;;18.56;53.52;100759.66;5141377;27;20467;-53
2022/11/07 08:07:00;;;;;;;6.13;2.22;;;;;;;18.57;53.62;100756.81;5138453;27;19941;-55
2022/11/07 08:09:25;;;;;;;5.85;2.22;;;;;;;18.55;53.34;100764.19;5135323;27;20047;-51
2022/11/07 08:11:50;;;;;;;7.28;3.05;;;;;;;18.58;53.80;100761.16;5133059;27;20030;-54
2022/11/07 08:14:15;;;;;;;4.88;2.42;;;;;;;18.59;53.29;100768.22;5133597;27;20042;-56
2022/11/07 08:16:41;;;;;;;4.28;2.63;;;;;;;18.59;53.69;100770.09;5134202;27;20547;-53
2022/11/07 08:19:06;;;;;;;4.50;2.00;;;;;;;18.58;53.50;100771.09;5131419;27;20050;-57
2022/11/07 08:21:31;;;;;;;3.80;2.40;;;;;;;18.61;53.71;100776.16;5126249;28;20164;-57
2022/11/07 08:23:56;;;;;;;6.07;2.10;;;;;;;18.61;53.62;100773.47;5143523;27;20038;-55
2022/11/07 08:26:22;;;;;;;8.10;2.53;;;;;;;18.62;53.46;100783.22;5124825;28;20102;-52
2022/11/07 08:28:47;;;;;;;4.72;2.38;;;;;;;18.62;53.74;100775.13;5123547;28;20039;-55
2022/11/07 08:31:12;;;;;;;7.22;2.72;;;;;;;18.62;53.84;100781.38;5123545;28;20019;-55
2022/11/07 08:33:38;;;;;;;4.65;1.95;;;;;;;18.63;53.34;100783.03;5123925;28;20047;-56
2022/11/07 08:36:05;;;;;;;5.75;1.88;;;;;;;18.63;53.21;100782.19;5123508;28;20126;-55
2022/11/07 08:38:31;;;;;;;8.65;2.75;;;;;;;18.60;53.38;100788.75;5124000;28;20015;-54
2022/11/07 08:40:58;;;;;;;6.82;2.85;;;;;;;18.63;53.33;100793.81;5123938;28;20023;-56
2022/11/07 08:43:23;;;;;;;5.47;2.20;;;;;;;18.64;53.54;100798.19;5123777;28;20034;-58
2022/11/07 08:45:49;;;;;;;7.05;2.60;;;;;;;18.62;53.37;100800.22;5123513;28;20035;-56
2022/11/07 08:48:15;;;;;;;3.63;2.10;;;;;;;18.64;53.36;100811.63;5125086;28;20023;-57
2022/11/07 08:50:40;;;;;;;6.25;3.13;;;;;;;18.65;53.32;100807.13;5143859;27;20027;-55
2022/11/07 08:53:06;;;;;;;4.32;2.00;;;;;;;18.69;53.10;100812.03;5135942;27;20059;-55
2022/11/07 08:55:31;;;;;;;6.57;1.85;;;;;;;18.73;53.47;100807.13;5141347;28;20035;-53
2022/11/07 08:58:02;;;;;;;4.40;2.45;;;;;;;18.72;53.22;100811.66;5144373;28;20031;-56
2022/11/07 09:00:28;;;;;;;3.55;2.22;;;;;;;18.80;53.00;100823.47;5144292;27;20060;-56
2022/11/07 09:02:53;;;;;;;4.20;2.28;;;;;;;18.81;53.07;100819.75;5144140;27;20098;-56
2022/11/07 09:05:18;;;;;;;5.35;2.90;;;;;;;18.81;53.12;100828.66;5144131;28;20030;-56
2022/11/07 09:07:44;;;;;;;4.63;2.30;;;;;;;18.67;53.45;100799.69;5144018;28;20064;-56
2022/11/07 09:10:10;;;;;;;4.78;2.53;;;;;;;18.82;52.92;100816.91;5144440;28;20056;-55
2022/11/07 09:12:36;;;;;;;6.95;2.65;;;;;;;18.83;53.17;100820.44;5142896;28;20428;-57
2022/11/07 09:15:01;;;;;;;4.90;2.90;;;;;;;18.84;53.02;100809.47;5147266;27;20058;-57
2022/11/07 09:17:26;;;;;;;5.60;2.38;;;;;;;18.89;52.96;100814.34;5148480;27;20072;-56
2022/11/07 09:19:51;;;;;;;7.72;2.63;;;;;;;18.92;52.92;100798.69;5147839;27;20075;-57
2022/11/07 09:22:17;;;;;;;7.97;3.30;;;;;;;18.94;52.96;100815.50;5146542;27;20034;-57
2022/11/07 09:24:42;;;;;;;5.25;2.58;;;;;;;18.96;52.59;100815.34;5127524;28;20020;-57
2022/11/07 09:27:07;;;;;;;4.25;2.28;;;;;;;18.98;52.69;100816.00;5127255;28;20034;-57
2022/11/07 09:29:33;;;;;;;5.55;2.53;;;;;;;18.98;52.64;100816.84;5126899;28;20415;-57
2022/11/07 09:31:58;;;;;;;4.68;2.28;;;;;;;18.91;52.55;100807.78;5126991;28;20122;-56
2022/11/07 09:34:24;;;;;;;3.80;2.20;;;;;;;18.99;52.35;100820.41;5127169;28;20079;-55
2022/11/07 09:36:49;;;;;;;5.75;2.22;;;;;;;18.99;52.31;100817.72;5126745;28;20079;-54
2022/11/07 09:39:15;;;;;;;4.03;2.20;;;;;;;19.02;52.48;100825.44;5127340;28;20031;-55
2022/11/07 09:42:02;;;;;;;5.32;2.42;;;;;;;19.05;52.52;100825.09;5126806;28;20059;-54
2022/11/07 09:45:01;;;;;;;4.03;2.40;;;;;;;19.05;52.41;100832.34;5125664;28;20024;-56
2022/11/07 09:47:50;;;;;;;4.68;2.08;;;;;;;19.07;52.09;100838.41;5126797;28;20051;-54
2022/11/07 09:50:29;;;;;;;5.35;2.92;;;;;;;18.98;52.21;100824.94;5125237;28;20071;-57
2022/11/07 09:53:07;;;;;;;4.55;2.22;;;;;;;19.06;52.11;100839.41;5133237;27;20027;-55
2022/11/07 09:55:34;;;;;;;5.88;2.70;;;;;;;19.01;52.23;100841.78;5128701;27;20035;-52
2022/11/07 09:58:02;;;;;;;4.80;2.63;;;;;;;19.03;52.32;100853.22;5124599;27;20023;-52
2022/11/07 10:00:30;;;;;;;5.85;2.92;;;;;;;19.03;52.74;100858.59;5125248;27;20034;-56
2022/11/07 10:03:00;;;;;;;5.28;3.00;;;;;;;19.03;52.39;100856.78;5126234;28;20054;-56
2022/11/07 10:05:52;;;;;;;5.95;2.65;;;;;;;19.03;52.49;100859.47;5125254;28;20030;-55
2022/11/07 10:08:28;;;;;;;5.25;3.25;;;;;;;19.05;52.60;100860.13;5126797;28;20023;-51
2022/11/07 10:10:59;;;;;;;5.00;3.05;;;;;;;19.07;52.72;100857.25;5125054;28;20035;-55
2022/11/07 10:13:39;;;;;;;4.70;3.00;;;;;;;19.10;52.63;100859.63;5125215;28;20023;-55
2022/11/07 10:16:11;;;;;;;5.10;2.92;;;;;;;19.11;52.66;100858.59;5128512;27;20502;-55
2022/11/07 10:18:40;;;;;;;6.10;3.30;;;;;;;19.12;52.35;100865.69;5147107;27;20031;-55
2022/11/07 10:21:26;;;;;;;4.63;3.22;;;;;;;19.14;52.55;100869.88;5146283;27;20058;-57
2022/11/07 10:23:59;;;;;;;5.35;3.13;;;;;;;19.10;52.33;100849.69;5125381;28;20072;-54
2022/11/07 10:26:26;;;;;;;3.67;2.60;;;;;;;19.20;52.57;100860.28;5123969;28;20427;-56
2022/11/07 10:29:10;;;;;;;4.60;2.75;;;;;;;19.25;52.22;100865.16;5124755;28;20047;-57
2022/11/07 10:31:39;;;;;;;5.50;2.90;;;;;;;19.27;52.38;100866.66;5124372;28;20175;-56
2022/11/07 10:34:12;;;;;;;3.37;2.50;;;;;;;19.31;52.16;100862.59;5126115;28;20228;-57
2022/11/07 10:36:37;;;;;;;3.92;2.60;;;;;;;19.32;51.95;100877.75;5124166;28;20299;-57
2022/11/07 10:39:12;;;;;;;4.95;3.10;;;;;;;19.31;52.28;100877.94;5126074;28;20092;-57
2022/11/07 10:41:40;;;;;;;4.35;2.70;;;;;;;19.29;51.95;100878.13;5125719;28;20539;-57
2022/11/07 10:44:12;;;;;;;5.72;3.08;;;;;;;19.15;52.31;100855.38;5124514;28;20422;-55
2022/11/07 10:46:40;;;;;;;5.05;2.97;;;;;;;19.27;52.00;100882.81;5124079;28;20039;-55
2022/11/07 10:49:26;;;;;;;5.70;3.20;;;;;;;19.26;52.42;100883.84;5133904;27;20019;-56
2022/11/07 10:51:53;;;;;;;5.47;3.00;;;;;;;19.26;52.50;100874.94;5145738;27;20164;-58
2022/11/07 10:54:27;;;;;;;5.00;3.00;;;;;;;19.28;52.10;100870.19;5126158;27;20560;-56
2022/11/07 10:57:10;;;;;;;8.23;3.35;;;;;;;19.29;52.55;100870.03;5125462;28;20034;-58
2022/11/07 10:59:38;;;;;;;5.80;2.70;;;;;;;19.30;52.37;100878.97;5124249;28;20099;-56
2022/11/07 11:02:22;;;;;;;4.32;3.15;;;;;;;19.30;52.22;100882.50;5125040;28;20077;-54
2022/11/07 11:04:56;;;;;;;4.90;2.70;;;;;;;19.30;52.11;100871.72;5125437;28;20027;-55
2022/11/07 11:07:35;;;;;;;5.50;2.53;;;;;;;19.29;52.30;100886.22;5123631;28;20016;-52
2022/11/07 11:10:00;;;;;;;4.10;2.47;;;;;;;19.31;52.47;100877.94;5125300;28;20031;-55
2022/11/07 11:12:29;;;;;;;4.72;2.67;;;;;;;19.32;52.49;100877.75;5124812;28;20020;-50
2022/11/07 11:15:22;;;;;;;3.85;2.42;;;;;;;19.33;52.81;100876.78;5124985;28;20042;-54
2022/11/07 11:17:57;;;;;;;4.30;2.60;;;;;;;19.34;52.71;100873.06;5137962;27;20534;-53
2022/11/07 11:20:26;;;;;;;5.88;2.70;;;;;;;19.36;52.79;100876.41;5145522;27;20100;-57
2022/11/07 11:22:52;;;;;;;4.38;2.85;;;;;;;19.39;52.70;100875.22;5138074;27;20051;-57
2022/11/07 11:25:20;;;;;;;6.13;2.67;;;;;;;19.41;52.47;100878.56;5123547;28;20027;-55
2022/11/07 11:27:48;;;;;;;5.17;2.97;;;;;;;19.36;52.45;100862.09;5124591;28;20489;-56
2022/11/07 11:30:18;;;;;;;7.07;2.70;;;;;;;19.47;52.74;100869.81;5123466;28;20264;-57
2022/11/07 11:33:16;;;;;;;4.32;2.75;;;;;;;19.50;52.55;100872.19;5123321;28;20024;-52
2022/11/07 11:35:43;;;;;;;4.80;2.40;;;;;;;19.53;52.32;100873.66;5122617;28;20550;-56